Time;durP1;ratioP1;P1;durP2;ratioP2;P2;SDS_P1;SDS_P2;PMS_P1;PMS_P2;Temp;Humidity;BMP_temperature;BMP_pressure;BME280_temperature;BME280_humidity;BME280_pressure;Samples;Min_cycle;Max_cycle;Signal;HPM_P1;HPM_P2
2022/07/25 00:00:09;;;;;;;7.68;5.47;;;23.20;93.60;;;;;;5073507;28;20028;-71
2022/07/25 00:02:35;;;;;;;6.95;5.22;;;23.20;93.50;;;;;;5074073;28;20299;-71
2022/07/25 00:05:02;;;;;;;7.07;6.00;;;23.20;93.40;;;;;;5074022;28;20353;-71
2022/07/25 00:07:28;;;;;;;7.50;5.90;;;23.20;93.30;;;;;;5073753;28;20059;-71
2022/07/25 00:09:54;;;;;;;7.78;5.60;;;23.10;93.50;;;;;;5073662;28;20071;-71
2022/07/25 00:12:20;;;;;;;6.72;5.35;;;23.10;93.10;;;;;;5073755;28;20025;-70
2022/07/25 00:14:47;;;;;;;6.50;5.00;;;23.10;93.20;;;;;;5055950;28;20040;-70
2022/07/25 00:17:13;;;;;;;6.43;5.25;;;23.10;93.20;;;;;;5093598;22;20036;-70
2022/07/25 00:19:39;;;;;;;7.72;5.43;;;23.10;93.10;;;;;;5093529;28;20387;-69
2022/07/25 00:22:05;;;;;;;6.85;5.30;;;23.10;93.20;;;;;;5092699;28;20095;-70
2022/07/25 00:24:31;;;;;;;8.02;6.00;;;23.20;93.00;;;;;;5093703;28;20519;-70
2022/07/25 00:26:57;;;;;;;7.90;5.57;;;23.20;92.50;;;;;;5093591;28;20140;-70
2022/07/25 00:29:23;;;;;;;7.18;5.40;;;23.20;92.40;;;;;;5093370;28;20028;-70
2022/07/25 00:31:49;;;;;;;8.60;5.72;;;23.20;92.40;;;;;;5093641;28;20582;-70
2022/07/25 00:34:15;;;;;;;8.75;5.40;;;23.20;92.50;;;;;;5092302;28;20028;-70
2022/07/25 00:36:41;;;;;;;6.03;5.20;;;23.20;92.70;;;;;;5093406;28;20420;-69
2022/07/25 00:39:07;;;;;;;6.45;5.75;;;23.20;92.70;;;;;;5093201;28;20373;-70
2022/07/25 00:41:32;;;;;;;6.50;5.50;;;23.20;92.80;;;;;;5093339;28;20028;-69
2022/07/25 00:43:58;;;;;;;7.93;5.78;;;23.20;92.80;;;;;;5093313;28;20035;-70
2022/07/25 00:46:24;;;;;;;7.00;5.85;;;23.20;92.80;;;;;;5093284;28;20103;-69
2022/07/25 00:48:50;;;;;;;7.75;5.97;;;23.10;92.80;;;;;;5091863;28;20397;-70
2022/07/25 00:51:17;;;;;;;7.90;6.53;;;23.10;92.80;;;;;;5093227;28;20027;-70
2022/07/25 00:53:44;;;;;;;7.55;6.18;;;23.10;92.70;;;;;;5093183;28;20055;-70
2022/07/25 00:56:10;;;;;;;7.22;6.03;;;23.20;92.70;;;;;;5092944;28;20056;-70
2022/07/25 00:58:36;;;;;;;6.32;5.63;;;23.20;92.80;;;;;;5092707;28;20040;-70
2022/07/25 01:01:02;;;;;;;8.18;5.60;;;23.20;92.80;;;;;;5091720;28;20028;-70
2022/07/25 01:03:29;;;;;;;7.78;5.70;;;23.10;92.90;;;;;;5093113;28;20110;-70
2022/07/25 01:05:55;;;;;;;8.60;5.70;;;23.10;93.00;;;;;;5093108;28;20024;-70
2022/07/25 01:08:21;;;;;;;8.23;6.18;;;23.10;93.20;;;;;;5092859;28;20093;-70
2022/07/25 01:10:48;;;;;;;7.30;5.65;;;23.10;93.30;;;;;;5092627;28;20052;-70
2022/07/25 01:13:14;;;;;;;7.63;5.95;;;23.00;93.30;;;;;;5092837;28;20030;-70
2022/07/25 01:15:41;;;;;;;7.38;5.97;;;23.00;93.40;;;;;;5092721;28;20109;-70
2022/07/25 01:18:07;;;;;;;9.30;6.55;;;22.90;93.30;;;;;;5092563;28;20552;-69
2022/07/25 01:20:33;;;;;;;7.50;5.90;;;22.80;93.30;;;;;;5092375;28;20119;-69
2022/07/25 01:22:59;;;;;;;7.97;6.03;;;22.80;93.40;;;;;;5092782;28;20313;-69
2022/07/25 01:25:26;;;;;;;7.10;5.93;;;22.80;93.40;;;;;;5092613;28;20059;-69
2022/07/25 01:27:53;;;;;;;8.98;6.75;;;22.70;93.50;;;;;;5092383;28;20024;-70
2022/07/25 01:30:20;;;;;;;8.77;5.80;;;22.70;93.50;;;;;;5092236;28;20039;-70
2022/07/25 01:32:46;;;;;;;8.95;6.07;;;22.70;93.50;;;;;;5092464;28;20496;-70
2022/07/25 01:35:13;;;;;;;7.50;6.03;;;22.70;93.50;;;;;;5091950;28;20115;-70
2022/07/25 01:37:39;;;;;;;7.50;5.90;;;22.60;93.50;;;;;;5092309;28;20373;-70
2022/07/25 01:40:06;;;;;;;7.25;5.15;;;22.60;93.60;;;;;;5092263;28;20024;-70
2022/07/25 01:42:32;;;;;;;8.18;5.95;;;22.60;93.60;;;;;;5092212;28;20392;-70
2022/07/25 01:44:59;;;;;;;7.68;5.75;;;22.50;93.60;;;;;;5092178;28;20028;-70
2022/07/25 01:47:25;;;;;;;8.70;5.88;;;22.50;93.70;;;;;;5092051;28;20032;-70
2022/07/25 01:49:51;;;;;;;8.98;6.15;;;22.40;93.80;;;;;;5091841;28;20036;-70
2022/07/25 01:52:17;;;;;;;7.43;5.80;;;22.40;93.90;;;;;;5092115;28;20028;-70
2022/07/25 01:54:43;;;;;;;7.28;5.85;;;22.40;94.00;;;;;;5092111;28;20343;-70
2022/07/25 01:57:09;;;;;;;6.43;5.50;;;22.30;94.10;;;;;;5091885;28;20028;-69
2022/07/25 01:59:38;;;;;;;10.32;6.53;;;22.30;94.10;;;;;;5091704;28;20050;-70
2022/07/25 02:02:05;;;;;;;9.38;6.38;;;22.30;94.20;;;;;;5091885;28;20097;-70
2022/07/25 02:04:31;;;;;;;7.15;6.20;;;22.20;94.20;;;;;;5090608;28;20059;-70
2022/07/25 02:06:57;;;;;;;7.88;6.15;;;22.30;94.20;;;;;;5091685;28;20032;-70
2022/07/25 02:09:23;;;;;;;7.03;5.80;;;22.20;94.20;;;;;;5091613;28;20027;-70
2022/07/25 02:11:48;;;;;;;8.70;6.85;;;22.20;94.10;;;;;;5091889;28;20480;-70
2022/07/25 02:14:14;;;;;;;7.03;5.53;;;22.20;94.00;;;;;;5091717;28;20056;-70
2022/07/25 02:16:40;;;;;;;8.40;5.65;;;22.20;94.00;;;;;;5091420;28;20030;-70
2022/07/25 02:19:06;;;;;;;8.68;6.22;;;22.20;94.00;;;;;;5091301;28;20136;-70
2022/07/25 02:21:33;;;;;;;8.27;6.15;;;22.20;94.00;;;;;;5091927;28;20430;-70
2022/07/25 02:23:59;;;;;;;7.28;5.97;;;22.20;94.00;;;;;;5091346;28;20028;-70
2022/07/25 02:26:24;;;;;;;10.32;6.28;;;22.20;94.00;;;;;;5091358;28;20061;-70
2022/07/25 02:28:51;;;;;;;8.57;6.15;;;22.20;93.90;;;;;;5091502;28;20036;-70
2022/07/25 02:31:16;;;;;;;6.93;5.90;;;22.20;93.80;;;;;;5091441;28;20042;-70
2022/07/25 02:33:43;;;;;;;8.60;6.10;;;22.20;93.80;;;;;;5091864;28;20032;-69
2022/07/25 02:36:10;;;;;;;7.47;5.88;;;22.20;93.80;;;;;;5091710;28;20460;-70
2022/07/25 02:38:37;;;;;;;7.13;6.15;;;22.20;93.70;;;;;;5091350;28;20028;-70
2022/07/25 02:41:03;;;;;;;7.60;6.28;;;22.20;93.70;;;;;;5091097;28;20043;-70
2022/07/25 02:43:29;;;;;;;7.40;5.75;;;22.20;93.60;;;;;;5091332;28;20428;-70
2022/07/25 02:45:56;;;;;;;7.88;5.88;;;22.10;93.60;;;;;;5090760;28;20111;-69
2022/07/25 02:48:22;;;;;;;8.27;5.70;;;22.20;93.60;;;;;;5091089;28;20024;-70
2022/07/25 02:50:48;;;;;;;7.68;5.82;;;22.20;93.60;;;;;;5091026;28;20032;-70
2022/07/25 02:53:14;;;;;;;8.32;6.20;;;22.20;93.60;;;;;;5091102;28;20089;-69
2022/07/25 02:55:39;;;;;;;8.38;6.15;;;22.20;93.60;;;;;;5091022;28;20384;-70
2022/07/25 02:58:05;;;;;;;9.52;6.20;;;22.20;93.60;;;;;;5091034;28;20028;-70
2022/07/25 03:00:32;;;;;;;8.05;5.80;;;22.20;93.60;;;;;;5090858;28;20070;-70
2022/07/25 03:02:58;;;;;;;8.13;5.80;;;22.20;93.60;;;;;;5090908;28;20039;-70
2022/07/25 03:05:24;;;;;;;7.68;5.75;;;22.20;93.50;;;;;;5091011;28;20419;-70
2022/07/25 03:07:50;;;;;;;7.05;5.63;;;22.20;93.50;;;;;;5090867;28;20136;-70
2022/07/25 03:10:16;;;;;;;8.40;5.80;;;22.20;93.30;;;;;;5090736;28;20031;-70
2022/07/25 03:12:43;;;;;;;7.65;5.88;;;22.20;93.30;;;;;;5091021;28;20030;-70
2022/07/25 03:15:10;;;;;;;8.40;5.85;;;22.20;93.20;;;;;;5090831;28;20531;-70
2022/07/25 03:17:37;;;;;;;8.15;6.38;;;22.20;93.10;;;;;;5090658;28;20032;-70
2022/07/25 03:20:05;;;;;;;8.25;5.95;;;22.20;93.10;;;;;;5090413;28;20024;-70
2022/07/25 03:22:31;;;;;;;6.27;5.27;;;22.20;93.10;;;;;;5090937;28;20028;-70
2022/07/25 03:24:57;;;;;;;8.70;6.15;;;22.20;93.20;;;;;;5090847;28;20020;-70
2022/07/25 03:27:23;;;;;;;7.28;5.80;;;22.20;93.20;;;;;;5090848;28;20035;-70
2022/07/25 03:29:49;;;;;;;6.88;5.47;;;22.10;93.20;;;;;;5090597;28;20380;-70
2022/07/25 03:32:14;;;;;;;9.85;6.22;;;22.10;93.20;;;;;;5090818;28;20036;-70
2022/07/25 03:34:40;;;;;;;8.00;6.13;;;22.10;93.20;;;;;;5090681;28;20047;-70
2022/07/25 03:37:06;;;;;;;6.90;5.80;;;22.10;93.30;;;;;;5089425;28;20499;-70
2022/07/25 03:39:32;;;;;;;7.40;5.82;;;22.10;93.30;;;;;;5090410;28;20032;-70
2022/07/25 03:41:58;;;;;;;6.80;5.70;;;22.10;93.30;;;;;;5090677;28;20032;-70
2022/07/25 03:44:24;;;;;;;8.00;6.15;;;22.10;93.30;;;;;;5090580;28;20021;-69
2022/07/25 03:46:51;;;;;;;7.15;5.88;;;22.10;93.30;;;;;;5090561;28;20035;-70
2022/07/25 03:49:17;;;;;;;8.38;6.10;;;22.10;93.30;;;;;;5090791;28;20054;-69
2022/07/25 03:51:43;;;;;;;8.00;6.10;;;22.10;93.40;;;;;;5090599;28;20032;-70
2022/07/25 03:54:13;;;;;;;8.93;6.10;;;22.10;93.30;;;;;;5090735;28;20059;-70
2022/07/25 03:56:44;;;;;;;9.15;6.43;;;22.10;93.30;;;;;;5091473;28;20275;-70
2022/07/25 03:59:12;;;;;;;7.05;5.97;;;22.10;93.30;;;;;;5094019;28;20043;-70
2022/07/25 04:01:39;;;;;;;7.88;6.10;;;22.10;93.20;;;;;;5094208;28;20031;-70
2022/07/25 04:04:05;;;;;;;9.48;6.25;;;22.10;93.20;;;;;;5094295;28;20270;-70
2022/07/25 04:06:31;;;;;;;9.18;6.35;;;22.10;93.10;;;;;;5094042;28;20052;-70
2022/07/25 04:08:57;;;;;;;7.15;5.85;;;22.10;93.10;;;;;;5092802;28;20055;-71
2022/07/25 04:11:23;;;;;;;6.50;5.80;;;22.10;93.10;;;;;;5094186;28;20381;-70
2022/07/25 04:13:50;;;;;;;6.90;5.63;;;22.10;93.10;;;;;;5094200;28;20024;-70
2022/07/25 04:16:16;;;;;;;6.57;5.45;;;22.10;93.10;;;;;;5094307;28;20024;-70
2022/07/25 04:18:42;;;;;;;7.43;5.88;;;22.10;92.90;;;;;;5093501;28;20051;-70
2022/07/25 04:21:08;;;;;;;6.78;5.50;;;22.20;92.90;;;;;;5092594;28;20028;-69
2022/07/25 04:23:35;;;;;;;6.38;5.30;;;22.20;92.80;;;;;;5092458;28;20480;-69
2022/07/25 04:26:02;;;;;;;9.30;5.90;;;22.20;92.80;;;;;;5093760;28;20028;-70
2022/07/25 04:28:28;;;;;;;6.90;5.97;;;22.20;92.90;;;;;;5093598;28;20031;-69
2022/07/25 04:30:54;;;;;;;7.72;5.78;;;22.30;92.90;;;;;;5093357;28;20020;-70
2022/07/25 04:33:20;;;;;;;7.38;5.68;;;22.30;92.90;;;;;;5093590;28;20036;-70
2022/07/25 04:35:46;;;;;;;8.13;5.70;;;22.30;92.90;;;;;;5093519;28;20477;-71
2022/07/25 04:38:12;;;;;;;9.48;5.63;;;22.30;92.80;;;;;;5093664;28;20031;-70
2022/07/25 04:40:39;;;;;;;9.00;5.70;;;22.30;92.80;;;;;;5093296;28;20024;-70
2022/07/25 04:43:04;;;;;;;7.38;5.70;;;22.30;92.80;;;;;;5093534;28;20024;-70
2022/07/25 04:45:31;;;;;;;7.93;5.65;;;22.40;92.80;;;;;;5093675;28;20027;-70
2022/07/25 04:47:57;;;;;;;6.85;5.55;;;22.40;92.70;;;;;;5093344;28;20024;-69
2022/07/25 04:50:23;;;;;;;7.85;5.32;;;22.40;92.70;;;;;;5093181;28;20039;-70
2022/07/25 04:52:49;;;;;;;8.57;5.55;;;22.40;92.70;;;;;;5093575;28;20040;-69
2022/07/25 04:55:15;;;;;;;10.18;5.95;;;22.40;92.70;;;;;;5093215;28;20546;-70
2022/07/25 04:57:41;;;;;;;7.53;5.80;;;22.40;92.60;;;;;;5093162;28;20036;-69
2022/07/25 05:00:09;;;;;;;6.78;5.75;;;22.50;92.60;;;;;;5092835;28;20040;-70
2022/07/25 05:02:35;;;;;;;8.35;6.43;;;22.50;92.60;;;;;;5093365;28;20454;-70
2022/07/25 05:05:01;;;;;;;9.30;6.45;;;22.50;92.60;;;;;;5093130;28;20028;-70
2022/07/25 05:07:27;;;;;;;7.30;6.07;;;22.50;92.50;;;;;;5092711;28;20110;-70
2022/07/25 05:09:53;;;;;;;8.52;5.88;;;22.50;92.40;;;;;;5091884;28;20108;-70
2022/07/25 05:12:19;;;;;;;8.75;5.75;;;22.60;92.30;;;;;;5092859;28;20077;-70
2022/07/25 05:14:45;;;;;;;8.57;5.75;;;22.60;92.20;;;;;;5092596;28;20024;-70
2022/07/25 05:17:11;;;;;;;7.45;5.93;;;22.60;92.30;;;;;;5092520;28;20024;-70
2022/07/25 05:19:37;;;;;;;9.02;5.80;;;22.60;92.30;;;;;;5092369;28;20016;-70
2022/07/25 05:22:04;;;;;;;6.82;5.43;;;22.70;92.10;;;;;;5092615;28;20039;-70
2022/07/25 05:24:34;;;;;;;10.70;5.90;;;22.70;92.00;;;;;;5092604;28;20024;-70
2022/07/25 05:27:00;;;;;;;7.28;5.20;;;22.70;91.90;;;;;;5092675;28;20380;-70
2022/07/25 05:29:26;;;;;;;7.35;5.30;;;22.70;91.90;;;;;;5090924;28;20035;-70
2022/07/25 05:31:52;;;;;;;7.60;5.70;;;22.80;92.00;;;;;;5092615;28;20028;-70
2022/07/25 05:34:18;;;;;;;7.05;5.40;;;22.70;92.10;;;;;;5092362;28;20055;-71
2022/07/25 05:36:45;;;;;;;7.28;5.80;;;22.80;92.10;;;;;;5092315;28;20434;-70
2022/07/25 05:39:11;;;;;;;7.97;5.60;;;22.80;92.00;;;;;;5091291;28;20027;-70
2022/07/25 05:41:37;;;;;;;7.57;5.35;;;22.80;92.10;;;;;;5092395;28;20429;-70
2022/07/25 05:44:03;;;;;;;8.65;5.25;;;22.80;92.10;;;;;;5092167;28;20074;-70
2022/07/25 05:46:32;;;;;;;6.60;5.25;;;22.80;92.20;;;;;;5092032;28;20089;-70
2022/07/25 05:48:58;;;;;;;;;;;22.80;92.00;;;;;;5092362;28;20032;-70
2022/07/25 05:51:24;;;;;;;8.45;5.35;;;22.80;92.10;;;;;;5092078;28;19908;-70
2022/07/25 05:53:50;;;;;;;8.57;5.85;;;22.80;92.20;;;;;;5092059;28;20040;-70
2022/07/25 05:56:16;;;;;;;7.43;5.72;;;22.80;92.20;;;;;;5091750;28;20085;-70
2022/07/25 05:58:42;;;;;;;8.65;5.97;;;22.80;92.30;;;;;;5090403;28;20076;-70
2022/07/25 06:01:11;;;;;;;6.97;5.30;;;22.90;92.30;;;;;;5092067;28;20024;-70
2022/07/25 06:03:37;;;;;;;8.32;5.68;;;22.80;92.30;;;;;;5090673;28;20028;-70
2022/07/25 06:06:03;;;;;;;8.90;5.63;;;22.80;92.20;;;;;;5091697;28;20031;-70
2022/07/25 06:08:29;;;;;;;6.53;5.35;;;22.90;92.00;;;;;;5091553;28;20024;-70
2022/07/25 06:10:58;;;;;;;6.70;5.10;;;22.90;91.90;;;;;;5091618;28;20641;-70
2022/07/25 06:13:26;;;;;;;6.50;5.30;;;22.90;91.80;;;;;;5090507;28;20024;-70
2022/07/25 06:15:52;;;;;;;6.68;5.32;;;22.90;91.90;;;;;;5091705;28;20036;-70
2022/07/25 06:18:18;;;;;;;8.85;6.10;;;23.00;91.90;;;;;;5091448;28;20032;-70
2022/07/25 06:20:44;;;;;;;8.55;6.13;;;23.00;91.90;;;;;;5091313;28;20094;-70
2022/07/25 06:23:10;;;;;;;6.85;5.32;;;23.00;91.90;;;;;;5091581;28;20024;-70
2022/07/25 06:25:36;;;;;;;7.15;5.50;;;23.10;91.90;;;;;;5091377;28;20387;-70
2022/07/25 06:28:02;;;;;;;6.50;5.43;;;23.10;91.80;;;;;;5091400;28;20027;-70
2022/07/25 06:30:28;;;;;;;7.45;5.28;;;23.10;91.70;;;;;;5091164;28;20512;-70
2022/07/25 06:32:54;;;;;;;8.38;5.70;;;23.20;91.60;;;;;;5091483;28;20032;-70
2022/07/25 06:35:20;;;;;;;7.70;5.53;;;23.20;91.40;;;;;;5091416;28;20036;-70
2022/07/25 06:37:46;;;;;;;7.43;5.57;;;23.30;91.30;;;;;;5091312;28;20032;-70
2022/07/25 06:40:13;;;;;;;6.60;5.00;;;23.30;91.30;;;;;;5091011;28;20085;-70
2022/07/25 06:42:41;;;;;;;7.88;5.28;;;23.40;91.50;;;;;;5091252;28;20222;-70
2022/07/25 06:45:08;;;;;;;5.72;4.90;;;23.50;91.60;;;;;;5090029;28;20024;-70
2022/07/25 06:47:34;;;;;;;6.22;4.90;;;23.50;91.40;;;;;;5091083;28;20149;-70
2022/07/25 06:50:00;;;;;;;7.68;5.50;;;23.60;91.30;;;;;;5090776;28;20024;-70
2022/07/25 06:52:26;;;;;;;9.60;5.60;;;23.60;91.10;;;;;;5091456;28;20035;-70
2022/07/25 06:54:52;;;;;;;6.65;5.15;;;23.60;91.00;;;;;;5091166;28;20031;-70
2022/07/25 06:57:18;;;;;;;7.05;5.45;;;23.70;90.90;;;;;;5090999;28;20115;-70
2022/07/25 06:59:44;;;;;;;6.55;5.40;;;23.70;91.00;;;;;;5090772;28;20056;-70
2022/07/25 07:02:11;;;;;;;6.53;5.47;;;23.80;90.90;;;;;;5089758;28;20039;-70
2022/07/25 07:04:38;;;;;;;5.57;4.93;;;23.80;90.90;;;;;;5091070;28;20035;-70
2022/07/25 07:07:04;;;;;;;7.25;5.55;;;23.80;90.90;;;;;;5090830;28;20472;-70
2022/07/25 07:09:30;;;;;;;7.90;5.65;;;23.90;90.90;;;;;;5090725;28;20070;-70
2022/07/25 07:11:56;;;;;;;7.53;5.55;;;24.00;90.90;;;;;;5090938;28;20073;-70
2022/07/25 07:14:21;;;;;;;6.35;5.20;;;24.00;90.90;;;;;;5090902;28;20033;-70
2022/07/25 07:16:47;;;;;;;7.47;5.40;;;24.10;90.90;;;;;;5090732;28;20392;-70
2022/07/25 07:19:14;;;;;;;7.07;5.25;;;24.20;90.80;;;;;;5090642;28;20089;-70
2022/07/25 07:21:41;;;;;;;5.70;5.10;;;24.20;90.60;;;;;;5090687;28;20028;-70
2022/07/25 07:24:09;;;;;;;9.90;6.80;;;24.30;90.70;;;;;;5090916;28;20154;-70
2022/07/25 07:26:35;;;;;;;9.55;7.00;;;24.30;90.60;;;;;;5090940;28;20054;-70
2022/07/25 07:29:02;;;;;;;8.18;6.50;;;24.40;90.50;;;;;;5090684;28;20484;-70
2022/07/25 07:31:28;;;;;;;7.75;6.07;;;24.50;90.50;;;;;;5091357;28;20050;-70
2022/07/25 07:33:54;;;;;;;8.63;6.30;;;24.50;90.40;;;;;;5094747;28;20028;-70
2022/07/25 07:36:21;;;;;;;8.95;6.72;;;24.60;90.40;;;;;;5095218;28;20035;-70
2022/07/25 07:38:47;;;;;;;9.50;6.63;;;24.70;90.10;;;;;;5094680;28;20032;-70
2022/07/25 07:41:14;;;;;;;9.40;6.47;;;24.70;89.80;;;;;;5094771;28;20035;-70
2022/07/25 07:43:41;;;;;;;9.75;6.32;;;24.80;89.80;;;;;;5094817;28;20273;-70
2022/07/25 07:46:07;;;;;;;13.32;6.55;;;24.90;89.60;;;;;;5094493;28;20035;-70
2022/07/25 07:48:33;;;;;;;10.32;6.50;;;25.00;89.20;;;;;;5094379;28;20024;-70
2022/07/25 07:51:00;;;;;;;9.43;6.20;;;25.10;88.50;;;;;;5094371;28;20540;-70
2022/07/25 07:56:13;;;;;;;8.63;5.93;;;25.10;88.50;;;;;;5094335;28;20032;-70
2022/07/25 07:58:39;;;;;;;13.25;6.40;;;25.20;88.60;;;;;;5094182;28;20027;-70
2022/07/25 08:01:05;;;;;;;11.30;6.45;;;25.20;87.30;;;;;;5094284;28;20024;-70
2022/07/25 08:03:31;;;;;;;9.63;6.20;;;25.30;86.90;;;;;;5094150;28;20118;-70
2022/07/25 08:05:57;;;;;;;9.85;6.07;;;25.30;85.40;;;;;;5094177;28;20032;-70
2022/07/25 08:08:24;;;;;;;9.90;5.72;;;25.40;85.50;;;;;;5093085;28;20107;-70
2022/07/25 08:10:50;;;;;;;9.00;5.43;;;25.50;85.50;;;;;;5092694;28;20028;-70
2022/07/25 08:13:19;;;;;;;9.68;6.10;;;25.50;85.50;;;;;;5094123;28;20035;-70
2022/07/25 08:15:47;;;;;;;8.80;5.53;;;25.50;85.60;;;;;;5093879;28;20024;-70
2022/07/25 08:18:13;;;;;;;8.27;5.57;;;25.60;85.90;;;;;;5093911;28;20500;-70
2022/07/25 08:20:40;;;;;;;9.65;5.15;;;25.60;86.10;;;;;;5093740;28;20035;-70
2022/07/25 08:23:07;;;;;;;10.68;5.78;;;25.60;85.40;;;;;;5093986;28;20116;-70
2022/07/25 08:25:34;;;;;;;12.15;5.38;;;25.70;85.10;;;;;;5093888;28;20032;-70
2022/07/25 08:28:00;;;;;;;6.47;5.32;;;25.80;84.60;;;;;;5093750;28;20036;-70
2022/07/25 08:30:26;;;;;;;9.00;5.30;;;25.80;85.10;;;;;;5093561;28;20032;-70
2022/07/25 08:33:02;;;;;;;7.43;5.15;;;25.70;85.40;;;;;;5093820;28;20035;-70
2022/07/25 08:35:29;;;;;;;9.98;5.63;;;25.70;85.50;;;;;;5093738;28;20397;-70
2022/07/25 08:37:55;;;;;;;7.32;5.10;;;25.70;86.10;;;;;;5093558;28;20024;-70
2022/07/25 08:40:24;;;;;;;7.70;5.25;;;25.60;86.00;;;;;;5093205;28;20036;-70
2022/07/25 08:42:51;;;;;;;9.90;5.32;;;25.60;86.10;;;;;;5093007;28;20385;-70
2022/07/25 08:45:18;;;;;;;6.35;5.20;;;25.60;86.60;;;;;;5092960;28;20027;-70
2022/07/25 08:47:46;;;;;;;7.32;4.93;;;25.50;87.00;;;;;;5093306;28;20024;-70
2022/07/25 08:50:14;;;;;;;8.23;5.75;;;25.50;86.80;;;;;;5093058;28;20028;-70
2022/07/25 08:52:44;;;;;;;7.72;5.47;;;25.50;86.60;;;;;;5093360;28;20028;-70
2022/07/25 08:55:15;;;;;;;6.57;5.53;;;25.50;86.30;;;;;;5093259;28;20127;-70
2022/07/25 08:57:44;;;;;;;6.32;4.93;;;25.50;86.10;;;;;;5093189;28;20046;-70
2022/07/25 09:00:15;;;;;;;8.32;5.30;;;25.40;86.10;;;;;;5092912;28;20032;-70
2022/07/25 09:02:41;;;;;;;6.82;5.40;;;25.40;86.60;;;;;;5093371;28;20421;-70
2022/07/25 09:05:08;;;;;;;9.43;5.82;;;25.40;86.50;;;;;;5093229;28;20100;-70
2022/07/25 09:07:39;;;;;;;9.77;5.32;;;25.50;86.50;;;;;;5093004;28;20475;-70
2022/07/25 09:10:27;;;;;;;9.43;5.65;;;25.50;87.10;;;;;;5092628;28;20032;-70
2022/07/25 09:13:06;;;;;;;8.48;5.70;;;25.60;86.60;;;;;;5093057;28;20032;-70
2022/07/25 09:15:35;;;;;;;7.68;5.78;;;25.70;87.00;;;;;;5093337;28;20028;-70
2022/07/25 09:18:02;;;;;;;;;;;25.70;86.80;;;;;;5093196;28;20119;-70
2022/07/25 09:20:47;;;;;;;8.30;5.70;;;25.70;86.80;;;;;;5092503;28;20357;-70
2022/07/25 09:23:26;;;;;;;8.07;5.50;;;25.80;86.20;;;;;;5092770;28;20027;-70
2022/07/25 09:25:51;;;;;;;;;;;25.70;86.30;;;;;;5093290;28;20027;-70
2022/07/25 09:28:19;;;;;;;7.72;5.30;;;25.70;86.30;;;;;;5092763;28;20321;-70
2022/07/25 09:30:59;;;;;;;7.82;5.85;;;25.60;86.40;;;;;;5092274;28;20374;-70
2022/07/25 09:33:27;;;;;;;9.13;5.65;;;25.70;86.50;;;;;;5092596;28;20081;-70
2022/07/25 09:35:54;;;;;;;9.07;6.20;;;25.70;87.30;;;;;;5092562;28;20115;-70
2022/07/25 09:38:21;;;;;;;8.43;5.90;;;25.70;87.50;;;;;;5092484;28;20488;-70
2022/07/25 09:40:58;;;;;;;9.25;5.97;;;25.70;88.00;;;;;;5092381;28;20042;-70
2022/07/25 09:43:42;;;;;;;10.25;5.40;;;25.80;87.00;;;;;;5092397;28;20533;-70
2022/07/25 09:46:09;;;;;;;10.23;5.70;;;25.80;87.50;;;;;;5092330;28;20076;-70
2022/07/25 09:48:38;;;;;;;10.05;5.47;;;25.80;87.10;;;;;;5090825;28;20034;-70
2022/07/25 09:51:06;;;;;;;6.68;5.38;;;25.80;86.50;;;;;;5092212;28;20024;-70
2022/07/25 09:53:32;;;;;;;7.50;5.32;;;25.80;85.80;;;;;;5092262;28;20047;-71
2022/07/25 09:55:58;;;;;;;7.47;4.88;;;25.70;85.50;;;;;;5091636;28;20028;-70
2022/07/25 09:58:28;;;;;;;8.10;4.93;;;25.70;86.10;;;;;;5092210;28;20451;-70
2022/07/25 10:01:04;;;;;;;6.93;5.03;;;25.70;86.10;;;;;;5091972;28;20560;-70
2022/07/25 10:03:50;;;;;;;9.32;4.85;;;25.70;86.10;;;;;;5092034;28;20067;-70
2022/07/25 10:06:23;;;;;;;6.28;4.65;;;25.60;85.10;;;;;;5091857;28;20434;-70
2022/07/25 10:08:50;;;;;;;6.07;4.03;;;25.60;84.50;;;;;;5091838;28;20429;-70
2022/07/25 10:11:22;;;;;;;6.93;3.80;;;25.50;84.20;;;;;;5091661;28;20484;-70
2022/07/25 10:13:49;;;;;;;5.53;4.07;;;25.60;84.10;;;;;;5091762;28;20373;-70
2022/07/25 10:16:17;;;;;;;6.35;4.10;;;25.50;84.50;;;;;;5090306;28;20105;-70
2022/07/25 10:18:48;;;;;;;;;;;25.50;84.50;;;;;;5091782;28;20095;-70
2022/07/25 10:21:14;;;;;;;6.22;3.60;;;25.50;84.80;;;;;;5091922;28;19914;-70
2022/07/25 10:23:41;;;;;;;6.18;3.53;;;25.50;82.60;;;;;;5091639;28;20376;-70
2022/07/25 10:26:14;;;;;;;6.30;3.80;;;25.50;82.40;;;;;;5091720;28;20035;-70
2022/07/25 10:28:46;;;;;;;7.03;3.53;;;25.50;82.20;;;;;;5091469;28;20032;-70
2022/07/25 10:31:26;;;;;;;6.40;3.83;;;25.50;82.80;;;;;;5091951;28;20032;-70
2022/07/25 10:34:04;;;;;;;7.60;3.40;;;25.50;82.10;;;;;;5091488;28;20079;-70
2022/07/25 10:36:41;;;;;;;5.05;3.40;;;25.50;82.10;;;;;;5091412;28;20035;-70
2022/07/25 10:39:10;;;;;;;5.57;3.65;;;25.40;82.20;;;;;;5091132;28;20493;-70
2022/07/25 10:41:41;;;;;;;7.50;4.85;;;25.40;82.70;;;;;;5091206;28;20052;-70
2022/07/25 10:44:12;;;;;;;6.18;4.88;;;25.40;82.70;;;;;;5091407;28;20440;-70
2022/07/25 10:46:38;;;;;;;5.50;3.70;;;25.40;83.30;;;;;;5091463;28;20030;-70
2022/07/25 10:49:07;;;;;;;5.13;3.30;;;25.40;83.70;;;;;;5090921;28;20062;-70
2022/07/25 10:51:35;;;;;;;4.90;3.45;;;25.40;83.70;;;;;;5091136;28;20059;-70
2022/07/25 10:54:12;;;;;;;5.18;3.30;;;25.40;83.10;;;;;;5091336;28;20031;-70
2022/07/25 10:56:54;;;;;;;4.38;3.03;;;25.50;82.10;;;;;;5091086;28;20094;-70
2022/07/25 10:59:34;;;;;;;5.30;3.00;;;25.60;82.00;;;;;;5090826;28;20559;-70
2022/07/25 11:02:01;;;;;;;5.72;3.08;;;25.70;80.60;;;;;;5091171;28;20025;-70
2022/07/25 11:04:27;;;;;;;6.10;3.17;;;25.70;80.00;;;;;;5091050;28;20024;-70
2022/07/25 11:06:53;;;;;;;4.90;3.13;;;25.80;80.10;;;;;;5090108;28;20073;-70
2022/07/25 11:09:20;;;;;;;4.65;3.25;;;25.80;80.30;;;;;;5090802;28;20384;-70
2022/07/25 11:11:49;;;;;;;4.50;2.80;;;25.90;80.40;;;;;;5090809;28;20097;-70
2022/07/25 11:14:30;;;;;;;4.63;3.30;;;25.90;80.30;;;;;;5090943;28;20032;-70
2022/07/25 11:16:56;;;;;;;9.75;3.80;;;26.00;80.70;;;;;;5090729;28;20119;-70
2022/07/25 11:19:26;;;;;;;5.88;3.38;;;26.00;81.50;;;;;;5090581;28;20040;-70
2022/07/25 11:21:58;;;;;;;5.18;3.05;;;26.00;81.60;;;;;;5090874;28;20107;-70
2022/07/25 11:24:41;;;;;;;6.20;2.72;;;26.00;81.30;;;;;;5090886;28;20020;-70
2022/07/25 11:27:09;;;;;;;7.00;3.25;;;26.00;81.80;;;;;;5090843;28;20032;-70
2022/07/25 11:29:39;;;;;;;5.95;3.08;;;26.10;82.10;;;;;;5090628;28;20028;-70
2022/07/25 11:32:07;;;;;;;4.60;2.85;;;26.20;81.40;;;;;;5090879;28;20106;-70
2022/07/25 11:34:34;;;;;;;;;;;26.20;81.70;;;;;;5091205;28;20111;-70
2022/07/25 11:37:02;;;;;;;5.53;3.03;;;26.30;81.70;;;;;;5090686;28;19908;-70
2022/07/25 11:39:33;;;;;;;4.75;3.47;;;26.30;81.70;;;;;;5090452;28;20032;-70
2022/07/25 11:42:17;;;;;;;5.35;3.25;;;26.30;81.70;;;;;;5090788;28;20036;-70
2022/07/25 11:44:53;;;;;;;6.57;2.80;;;26.30;82.10;;;;;;5090692;28;20024;-70
2022/07/25 11:47:25;;;;;;;7.35;3.45;;;26.20;82.50;;;;;;5090729;28;20036;-70
2022/07/25 11:49:53;;;;;;;4.57;3.00;;;26.30;81.70;;;;;;5090453;28;20077;-70
2022/07/25 11:52:36;;;;;;;5.30;3.10;;;26.30;81.60;;;;;;5090788;28;20047;-70
2022/07/25 11:55:05;;;;;;;4.00;2.80;;;26.30;81.30;;;;;;5090508;28;20071;-70
2022/07/25 11:57:34;;;;;;;4.70;3.17;;;26.30;81.50;;;;;;5089552;28;20032;-70
2022/07/25 12:00:08;;;;;;;4.88;3.00;;;26.30;81.70;;;;;;5090321;28;20036;-70
2022/07/25 12:02:38;;;;;;;6.25;3.10;;;26.30;81.70;;;;;;5091119;28;20036;-70
2022/07/25 12:05:10;;;;;;;6.13;2.70;;;26.30;82.50;;;;;;5090436;28;20024;-70
2022/07/25 12:07:40;;;;;;;6.90;2.63;;;26.30;83.50;;;;;;5090333;28;20465;-70
2022/07/25 12:10:12;;;;;;;7.13;2.95;;;26.30;83.80;;;;;;5090396;28;20051;-70
2022/07/25 12:12:47;;;;;;;5.43;2.95;;;26.40;84.30;;;;;;5090509;28;20036;-70
2022/07/25 12:15:14;;;;;;;6.55;2.80;;;26.40;84.10;;;;;;5090338;28;20024;-70
2022/07/25 12:17:42;;;;;;;5.00;2.70;;;26.40;83.80;;;;;;5105666;22;20055;-85
2022/07/25 12:20:31;;;;;;;4.63;3.00;;;26.40;84.50;;;;;;5072904;28;20032;-85
2022/07/25 12:23:00;;;;;;;7.32;2.88;;;26.40;84.10;;;;;;5074029;28;20081;-85
2022/07/25 12:25:28;;;;;;;6.05;2.75;;;26.40;84.10;;;;;;5055719;28;20092;-85
2022/07/25 12:27:55;;;;;;;6.72;3.55;;;26.40;84.20;;;;;;5071767;28;20028;-85
2022/07/25 12:30:21;;;;;;;4.47;2.83;;;26.50;84.00;;;;;;5073184;28;20037;-84
2022/07/25 12:32:46;;;;;;;6.68;2.90;;;26.50;84.10;;;;;;5073237;28;20090;-85
2022/07/25 12:35:13;;;;;;;6.57;3.17;;;26.50;84.60;;;;;;5055382;28;20039;-85
2022/07/25 12:37:40;;;;;;;6.80;3.20;;;26.50;84.40;;;;;;5055130;28;20041;-85
2022/07/25 12:40:07;;;;;;;6.72;3.13;;;26.50;84.40;;;;;;5072856;28;20059;-85
2022/07/25 12:42:32;;;;;;;6.30;2.95;;;26.50;84.60;;;;;;5054981;28;20024;-85
2022/07/25 12:44:58;;;;;;;6.15;3.03;;;26.50;85.50;;;;;;5038523;28;20098;-85
2022/07/25 12:47:26;;;;;;;6.63;3.10;;;26.50;85.20;;;;;;5072977;28;20544;-85
2022/07/25 12:49:52;;;;;;;7.03;2.88;;;26.60;85.20;;;;;;5072816;28;20123;-84
2022/07/25 12:52:18;;;;;;;5.45;2.97;;;26.60;85.70;;;;;;5055067;28;20115;-85